createdAt,value
2022-10-18T00:00:46.297Z,5.22
2022-10-18T00:03:13.207Z,5.60
2022-10-18T00:05:40.147Z,6.32
2022-10-18T00:08:07.125Z,6.05
2022-10-18T00:10:34.143Z,5.93
2022-10-18T00:13:01.146Z,6.47
2022-10-18T00:15:28.159Z,6.90
2022-10-18T00:17:55.303Z,7.45
2022-10-18T00:20:22.412Z,9.40
2022-10-18T00:22:49.300Z,7.80
2022-10-18T00:25:16.556Z,8.40
2022-10-18T00:27:43.486Z,8.68
2022-10-18T00:30:10.941Z,10.75
2022-10-18T00:32:41.739Z,10.00
2022-10-18T00:35:09.297Z,9.73
2022-10-18T00:37:36.447Z,9.75
2022-10-18T00:40:03.946Z,11.40
2022-10-18T00:42:34.568Z,12.60
2022-10-18T00:45:14.771Z,12.05
2022-10-18T00:47:43.854Z,11.63
2022-10-18T00:50:11.446Z,13.48
2022-10-18T00:52:47.046Z,14.23
2022-10-18T00:55:13.974Z,14.75
2022-10-18T00:57:44.058Z,14.35
2022-10-18T01:00:12.162Z,17.00
2022-10-18T01:02:41.758Z,17.38
2022-10-18T01:05:10.510Z,17.45
2022-10-18T01:08:07.214Z,17.20
2022-10-18T01:11:10.921Z,18.58
2022-10-18T01:14:05.817Z,18.30
2022-10-18T01:17:03.787Z,16.88
2022-10-18T01:19:49.303Z,18.10
2022-10-18T01:22:36.395Z,17.85
2022-10-18T01:25:30.110Z,17.23
2022-10-18T01:28:27.395Z,18.08
2022-10-18T01:31:06.235Z,16.92
2022-10-18T01:33:51.160Z,17.13
2022-10-18T01:36:24.341Z,15.73
2022-10-18T01:38:55.491Z,16.15
2022-10-18T01:41:25.507Z,17.45
2022-10-18T01:43:57.521Z,17.40
2022-10-18T01:46:26.303Z,16.73
2022-10-18T01:48:54.719Z,15.23
2022-10-18T01:51:30.213Z,16.08
2022-10-18T01:53:58.218Z,15.50
2022-10-18T01:56:46.050Z,15.77
2022-10-18T01:59:37.948Z,16.70
2022-10-18T02:02:15.499Z,16.27
2022-10-18T02:04:56.058Z,15.30
2022-10-18T02:07:43.678Z,16.20
2022-10-18T02:10:16.593Z,16.20
2022-10-18T02:12:46.778Z,15.68
2022-10-18T02:15:19.548Z,15.63
2022-10-18T02:17:47.327Z,15.65
2022-10-18T02:20:18.216Z,15.82
2022-10-18T02:22:48.140Z,14.48
2022-10-18T02:25:20.385Z,15.90
2022-10-18T02:27:47.612Z,15.23
2022-10-18T02:30:15.874Z,15.30
2022-10-18T02:33:05.399Z,15.52
2022-10-18T02:35:45.683Z,15.52
2022-10-18T02:38:14.713Z,14.95
2022-10-18T02:40:41.645Z,14.60
2022-10-18T02:43:08.547Z,14.90
2022-10-18T02:45:35.826Z,14.57
2022-10-18T02:48:02.762Z,14.13
2022-10-18T02:50:29.640Z,13.38
2022-10-18T02:52:56.522Z,14.27
2022-10-18T02:55:23.497Z,13.30
2022-10-18T02:57:50.399Z,13.10
2022-10-18T03:00:17.389Z,12.35
2022-10-18T03:02:44.427Z,12.82
2022-10-18T03:05:11.393Z,11.70
2022-10-18T03:07:38.286Z,11.23
2022-10-18T03:10:05.642Z,11.95
2022-10-18T03:12:32.576Z,11.18
2022-10-18T03:14:59.495Z,10.85
2022-10-18T03:17:26.396Z,11.05
2022-10-18T03:19:53.294Z,11.82
2022-10-18T03:22:20.273Z,9.80
2022-10-18T03:24:47.220Z,10.70
2022-10-18T03:27:14.137Z,9.63
2022-10-18T03:29:41.163Z,9.77
2022-10-18T03:32:08.127Z,8.77
2022-10-18T03:34:35.054Z,9.18
2022-10-18T03:37:04.741Z,8.25
2022-10-18T03:39:32.470Z,8.48
2022-10-18T03:41:59.366Z,7.75
2022-10-18T03:44:26.240Z,7.63
2022-10-18T03:46:53.123Z,6.90
2022-10-18T03:49:20.119Z,6.60
2022-10-18T03:51:47.095Z,6.07
2022-10-18T03:54:13.987Z,5.78
2022-10-18T03:56:40.891Z,5.22
2022-10-18T03:59:07.818Z,4.38
2022-10-18T04:01:34.861Z,4.07
2022-10-18T04:04:01.818Z,4.85
2022-10-18T04:06:31.985Z,4.00
2022-10-18T04:08:58.881Z,3.83
2022-10-18T04:11:25.938Z,3.22
2022-10-18T04:13:52.821Z,3.08
2022-10-18T04:16:19.760Z,2.88
2022-10-18T04:18:46.685Z,2.97
2022-10-18T04:21:13.867Z,3.28
2022-10-18T04:23:40.794Z,3.10
2022-10-18T04:26:08.164Z,3.13
2022-10-18T04:28:40.059Z,3.03
2022-10-18T04:31:07.251Z,2.90
2022-10-18T04:33:34.229Z,3.15
2022-10-18T04:36:01.252Z,2.78
2022-10-18T04:38:28.499Z,2.35
2022-10-18T04:40:55.459Z,2.40
2022-10-18T04:43:22.407Z,3.03
2022-10-18T04:45:51.191Z,2.60
2022-10-18T04:48:18.676Z,2.80
2022-10-18T04:50:49.582Z,2.58
2022-10-18T04:55:45.693Z,2.42
2022-10-18T04:58:12.694Z,2.95
2022-10-18T05:00:40.131Z,2.38
2022-10-18T05:03:08.155Z,2.58
2022-10-18T05:05:50.049Z,2.70
2022-10-18T05:08:22.355Z,3.13
2022-10-18T05:10:49.318Z,2.72
2022-10-18T05:13:16.263Z,3.08
2022-10-18T05:15:43.208Z,3.10
2022-10-18T05:18:10.168Z,2.63
2022-10-18T05:20:37.110Z,3.08
2022-10-18T05:23:04.019Z,3.13
2022-10-18T05:25:30.983Z,3.03
2022-10-18T05:27:58.026Z,2.83
2022-10-18T05:30:27.086Z,3.42
2022-10-18T05:32:53.962Z,3.17
2022-10-18T05:35:20.906Z,3.70
2022-10-18T05:37:47.846Z,3.28
2022-10-18T05:40:14.817Z,2.80
2022-10-18T05:42:41.742Z,3.22
2022-10-18T05:45:09.252Z,3.58
2022-10-18T05:50:08.213Z,3.97
2022-10-18T05:52:35.228Z,4.25
2022-10-18T05:55:02.257Z,3.20
2022-10-18T05:57:29.286Z,3.33
2022-10-18T05:59:56.433Z,3.03
2022-10-18T06:02:23.444Z,3.20
2022-10-18T06:04:50.407Z,3.25
2022-10-18T06:07:17.422Z,3.42
2022-10-18T06:09:44.371Z,3.92
2022-10-18T06:12:11.280Z,3.20
2022-10-18T06:14:38.231Z,3.50
2022-10-18T06:17:05.423Z,3.33
2022-10-18T06:19:32.985Z,3.10
2022-10-18T06:21:59.905Z,3.00
2022-10-18T06:24:27.483Z,3.17
2022-10-18T06:26:54.420Z,3.30
2022-10-18T06:29:21.327Z,3.40
2022-10-18T06:31:48.244Z,3.55
2022-10-18T06:34:15.163Z,3.53
2022-10-18T06:36:42.068Z,2.85
2022-10-18T06:39:09.091Z,3.03
2022-10-18T06:41:36.009Z,3.20
2022-10-18T06:44:13.316Z,3.05
2022-10-18T06:46:44.849Z,3.05
2022-10-18T06:49:16.693Z,3.58
2022-10-18T06:51:46.323Z,3.53
2022-10-18T06:54:17.901Z,3.20
2022-10-18T06:56:45.675Z,3.45
2022-10-18T06:59:12.932Z,2.88
2022-10-18T07:01:39.985Z,2.97
2022-10-18T07:04:07.306Z,3.20
2022-10-18T07:06:34.266Z,3.63
2022-10-18T07:09:03.015Z,3.20
2022-10-18T07:11:29.936Z,3.67
2022-10-18T07:14:04.899Z,3.35
2022-10-18T07:16:33.639Z,3.20
2022-10-18T07:19:00.679Z,3.88
2022-10-18T07:21:28.211Z,3.20
2022-10-18T07:23:56.261Z,3.50
2022-10-18T07:26:27.202Z,3.75
2022-10-18T07:31:23.976Z,3.13
2022-10-18T07:33:52.270Z,3.55
2022-10-18T07:36:21.274Z,3.42
2022-10-18T07:38:49.372Z,3.30
2022-10-18T07:41:16.285Z,2.80
2022-10-18T07:43:49.184Z,3.03
2022-10-18T07:46:16.225Z,2.75
2022-10-18T07:48:43.381Z,2.58
2022-10-18T07:51:10.754Z,2.88
2022-10-18T07:53:37.910Z,2.00
2022-10-18T07:56:09.637Z,2.25
2022-10-18T07:58:36.977Z,2.47
2022-10-18T08:01:06.115Z,2.40
2022-10-18T08:03:34.174Z,2.22
2022-10-18T08:06:01.303Z,2.00
2022-10-18T08:08:28.982Z,1.95
2022-10-18T08:10:56.189Z,1.85
2022-10-18T08:13:23.095Z,2.05
2022-10-18T08:15:49.980Z,2.47
2022-10-18T08:18:16.912Z,1.92
2022-10-18T08:20:45.322Z,2.90
2022-10-18T08:23:12.551Z,1.60
2022-10-18T08:25:39.610Z,1.80
2022-10-18T08:28:07.083Z,2.00
2022-10-18T08:30:35.899Z,1.60
2022-10-18T08:33:03.842Z,1.65
2022-10-18T08:35:31.916Z,1.52
2022-10-18T08:37:59.519Z,1.98
2022-10-18T08:40:27.780Z,1.80
2022-10-18T08:43:12.820Z,1.45
2022-10-18T08:45:43.118Z,1.60
2022-10-18T08:48:47.375Z,1.48
2022-10-18T08:51:43.845Z,1.50
2022-10-18T08:54:15.316Z,1.60
2022-10-18T08:56:46.812Z,1.48
2022-10-18T08:59:13.953Z,1.40
2022-10-18T09:04:18.831Z,1.42
2022-10-18T09:07:04.250Z,1.33
2022-10-18T09:09:36.982Z,1.63
2022-10-18T09:12:30.298Z,1.67
2022-10-18T09:15:26.482Z,1.58
2022-10-18T09:18:12.046Z,1.77
2022-10-18T09:20:57.929Z,1.20
2022-10-18T09:23:40.612Z,1.20
2022-10-18T09:26:23.818Z,1.77
2022-10-18T09:29:28.329Z,1.20
2022-10-18T09:32:04.795Z,1.00
2022-10-18T09:34:39.246Z,1.67
2022-10-18T09:37:16.295Z,1.42
2022-10-18T09:39:43.923Z,1.50
2022-10-18T09:42:20.656Z,1.42
2022-10-18T09:44:55.821Z,1.30
2022-10-18T09:47:27.816Z,1.38
2022-10-18T09:50:35.589Z,1.35
2022-10-18T09:53:07.482Z,1.83
2022-10-18T09:55:40.716Z,1.38
2022-10-18T09:58:11.217Z,1.13
2022-10-18T10:00:54.696Z,1.48
2022-10-18T10:03:24.915Z,1.25
2022-10-18T10:06:17.257Z,1.40
2022-10-18T10:08:51.168Z,1.25
2022-10-18T10:11:33.681Z,1.40
2022-10-18T10:14:27.862Z,1.40
2022-10-18T10:17:08.529Z,1.35
2022-10-18T10:20:07.625Z,1.63
2022-10-18T10:22:38.184Z,2.22
2022-10-18T10:25:06.862Z,1.75
2022-10-18T10:27:45.214Z,1.98
2022-10-18T10:30:21.353Z,2.10
2022-10-18T10:32:50.674Z,2.40
2022-10-18T10:38:26.069Z,2.20
2022-10-18T10:40:53.365Z,2.50
2022-10-18T10:43:42.010Z,2.75
2022-10-18T10:46:13.105Z,3.10
2022-10-18T10:48:42.145Z,2.63
2022-10-18T10:51:12.547Z,3.20
2022-10-18T10:53:53.071Z,3.10
2022-10-18T10:56:32.259Z,2.90
2022-10-18T10:59:14.490Z,3.35
2022-10-18T11:01:41.925Z,2.60
2022-10-18T11:04:28.391Z,3.38
2022-10-18T11:07:30.799Z,3.38
2022-10-18T11:10:06.823Z,2.35
2022-10-18T11:15:45.270Z,1.52
2022-10-18T11:18:21.799Z,1.50
2022-10-18T11:20:49.236Z,1.20
2022-10-18T11:23:17.951Z,1.25
2022-10-18T11:26:10.981Z,1.25
2022-10-18T11:29:15.123Z,1.45
2022-10-18T11:32:22.883Z,1.38
2022-10-18T11:35:08.101Z,1.25
2022-10-18T11:37:43.991Z,1.50
2022-10-18T11:40:32.352Z,1.33
2022-10-18T11:43:30.367Z,1.30
2022-10-18T11:46:26.742Z,1.40
2022-10-18T11:49:10.671Z,1.17
2022-10-18T11:52:08.207Z,1.17
2022-10-18T11:54:53.637Z,1.58
2022-10-18T11:57:38.431Z,1.15
2022-10-18T12:00:23.970Z,1.77
2022-10-18T12:03:11.799Z,1.60
2022-10-18T12:05:41.402Z,2.17
2022-10-18T12:08:26.851Z,2.38
2022-10-18T12:11:05.149Z,2.53
2022-10-18T12:13:47.294Z,2.35
2022-10-18T12:16:15.241Z,1.90
2022-10-18T12:18:54.882Z,2.58
2022-10-18T12:21:25.768Z,2.88
2022-10-18T12:24:16.272Z,3.00
2022-10-18T12:26:43.363Z,3.65
2022-10-18T12:29:26.350Z,4.00
2022-10-18T12:32:05.867Z,4.53
2022-10-18T12:34:39.301Z,4.18
2022-10-18T12:37:29.679Z,4.60
2022-10-18T12:40:12.502Z,4.50
2022-10-18T12:42:48.095Z,4.65
2022-10-18T12:45:26.761Z,5.38
2022-10-18T12:47:55.644Z,5.07
2022-10-18T12:50:35.866Z,5.88
2022-10-18T12:53:14.991Z,2.70
2022-10-18T12:55:44.611Z,4.43
2022-10-18T12:58:14.883Z,1.58
2022-10-18T13:00:41.792Z,1.60
2022-10-18T13:03:16.680Z,1.00
2022-10-18T13:05:53.989Z,0.80
2022-10-18T13:08:28.226Z,0.95
2022-10-18T13:11:10.337Z,0.60
2022-10-18T13:13:50.697Z,1.00
2022-10-18T13:16:23.655Z,0.93
2022-10-18T20:50:19.230Z,6.82
2022-10-18T20:52:51.286Z,6.03
2022-10-18T20:55:18.904Z,5.63
2022-10-18T20:57:45.839Z,5.35
2022-10-18T21:00:13.321Z,6.72
2022-10-18T21:02:40.193Z,11.38
2022-10-18T21:05:07.282Z,8.43
2022-10-18T21:07:34.522Z,6.32
2022-10-18T21:10:01.766Z,4.93
2022-10-18T21:12:29.124Z,7.13
2022-10-18T21:14:56.208Z,6.13
2022-10-18T21:17:23.141Z,4.93
2022-10-18T21:19:50.040Z,5.88
2022-10-18T21:22:16.935Z,4.75
2022-10-18T21:24:48.538Z,6.20
2022-10-18T21:27:15.445Z,4.82
2022-10-18T21:29:42.347Z,3.58
2022-10-18T21:32:09.220Z,3.13
2022-10-18T21:34:36.124Z,3.35
2022-10-18T21:37:03.028Z,3.47
2022-10-18T21:39:30.206Z,2.92
2022-10-18T21:41:57.316Z,2.55
2022-10-18T21:44:24.371Z,2.55
2022-10-18T21:46:51.361Z,3.78
2022-10-18T21:49:18.755Z,6.00
2022-10-18T21:51:45.757Z,5.78
2022-10-18T21:54:15.249Z,8.05
2022-10-18T21:56:42.690Z,2.78
2022-10-18T21:59:12.170Z,1.67
2022-10-18T22:01:39.936Z,2.13
2022-10-18T22:04:16.410Z,1.85
2022-10-18T22:06:43.306Z,4.00
2022-10-18T22:09:10.491Z,3.33
2022-10-18T22:11:40.869Z,2.80
2022-10-18T22:14:08.147Z,2.58
2022-10-18T22:16:35.096Z,1.65
2022-10-18T22:19:04.145Z,2.17
2022-10-18T22:21:31.515Z,2.38
2022-10-18T22:23:59.129Z,2.10
2022-10-18T22:26:31.943Z,2.20
2022-10-18T22:29:01.256Z,1.95
2022-10-18T22:31:31.346Z,2.20
2022-10-18T22:34:07.457Z,1.70
2022-10-18T22:36:35.587Z,1.63
2022-10-18T22:39:02.976Z,1.80
2022-10-18T22:41:30.532Z,2.67
2022-10-18T22:43:59.754Z,2.72
2022-10-18T22:46:29.913Z,4.85
2022-10-18T22:48:56.839Z,4.72
2022-10-18T22:51:24.017Z,4.90
2022-10-18T22:53:50.999Z,5.68
2022-10-18T22:56:20.207Z,3.78
2022-10-18T22:58:48.244Z,3.90
2022-10-18T23:01:18.500Z,4.13
2022-10-18T23:03:45.464Z,13.25
2022-10-18T23:06:39.937Z,11.15
2022-10-18T23:09:08.597Z,8.23
2022-10-18T23:11:37.045Z,9.48
2022-10-18T23:14:06.220Z,10.70
2022-10-18T23:16:33.480Z,6.20
2022-10-18T23:19:00.480Z,3.03
